createdAt,value
2023-03-07T00:03:57.861Z,8
2023-03-07T00:08:59.672Z,9
2023-03-07T00:14:01.458Z,9
2023-03-07T00:19:03.077Z,9
2023-03-07T00:24:04.733Z,9
2023-03-07T00:29:06.380Z,8
2023-03-07T00:34:08.194Z,7
2023-03-07T00:39:09.808Z,7
2023-03-07T00:44:11.626Z,7
2023-03-07T00:49:13.508Z,9
2023-03-07T00:54:15.366Z,9
2023-03-07T00:59:16.980Z,7
2023-03-07T01:04:18.625Z,9
2023-03-07T01:09:20.233Z,6
2023-03-07T01:14:21.881Z,7
2023-03-07T01:19:23.643Z,9
2023-03-07T01:24:25.299Z,10
2023-03-07T01:29:26.956Z,6
2023-03-07T01:34:28.571Z,9
2023-03-07T01:39:30.148Z,6
2023-03-07T01:44:31.832Z,10
2023-03-07T01:49:33.517Z,7
2023-03-07T01:54:35.132Z,8
2023-03-07T01:59:36.780Z,6
2023-03-07T02:04:38.474Z,9
2023-03-07T02:09:40.125Z,8
2023-03-07T02:14:41.742Z,7
2023-03-07T02:19:43.476Z,6
2023-03-07T02:24:45.069Z,6
2023-03-07T02:29:47.138Z,5
2023-03-07T02:34:49.405Z,6
2023-03-07T02:39:51.490Z,8
2023-03-07T02:44:53.704Z,7
2023-03-07T02:49:55.850Z,7
2023-03-07T02:54:58.027Z,6
2023-03-07T03:00:00.395Z,5
2023-03-07T03:05:02.734Z,5
2023-03-07T03:10:04.970Z,5
2023-03-07T03:15:06.864Z,9
2023-03-07T03:20:08.571Z,8
2023-03-07T03:25:10.582Z,6
2023-03-07T03:30:12.974Z,8
2023-03-07T03:35:15.305Z,6
2023-03-07T03:40:17.731Z,5
2023-03-07T03:45:19.894Z,5
2023-03-07T03:50:22.147Z,6
2023-03-07T03:55:24.327Z,6
2023-03-07T04:00:26.470Z,7
2023-03-07T04:05:28.726Z,7
2023-03-07T04:10:30.809Z,6
2023-03-07T04:15:33.073Z,4
2023-03-07T04:20:35.216Z,4
2023-03-07T04:25:38.226Z,4
2023-03-07T04:30:40.239Z,4
2023-03-07T04:35:42.213Z,4
2023-03-07T04:40:44.172Z,3
2023-03-07T04:45:45.904Z,3
2023-03-07T04:50:47.615Z,3
2023-03-07T04:55:49.238Z,2
2023-03-07T05:00:50.889Z,3
2023-03-07T05:05:52.527Z,3
2023-03-07T05:10:54.172Z,3
2023-03-07T05:15:55.748Z,2
2023-03-07T05:20:57.489Z,2
2023-03-07T05:25:59.165Z,2
2023-03-07T05:31:00.770Z,2
2023-03-07T05:36:02.505Z,2
2023-03-07T05:41:04.155Z,4
2023-03-07T05:46:05.855Z,2
2023-03-07T05:51:07.446Z,1
2023-03-07T05:56:09.083Z,2
2023-03-07T06:01:10.673Z,2
2023-03-07T06:06:12.582Z,2
2023-03-07T06:11:14.183Z,2
2023-03-07T06:16:15.856Z,2
2023-03-07T06:21:17.525Z,2
2023-03-07T06:26:19.198Z,2
2023-03-07T06:31:20.918Z,1
2023-03-07T06:36:22.573Z,2
2023-03-07T06:41:24.257Z,3
2023-03-07T06:46:25.919Z,2
2023-03-07T06:51:27.563Z,2
2023-03-07T06:56:29.186Z,2
2023-03-07T07:01:30.883Z,4
2023-03-07T07:06:32.509Z,3
2023-03-07T07:11:34.142Z,2
2023-03-07T07:16:35.780Z,2
2023-03-07T07:21:37.529Z,3
2023-03-07T07:26:39.161Z,4
2023-03-07T07:31:40.945Z,4
2023-03-07T07:36:42.856Z,3
2023-03-07T07:41:44.495Z,3
2023-03-07T07:46:46.127Z,2
2023-03-07T07:51:47.736Z,2
2023-03-07T07:56:49.494Z,2
2023-03-07T08:01:51.198Z,2
2023-03-07T08:06:52.778Z,3
2023-03-07T08:11:54.505Z,2
2023-03-07T08:16:56.139Z,5
2023-03-07T08:21:57.884Z,7
2023-03-07T08:26:59.523Z,10
2023-03-07T08:32:01.175Z,8
2023-03-07T08:37:02.855Z,10
2023-03-07T08:42:04.673Z,9
2023-03-07T08:47:06.340Z,8
2023-03-07T08:52:07.985Z,8
2023-03-07T08:57:09.616Z,10
2023-03-07T09:02:11.287Z,9
2023-03-07T09:07:13.187Z,8
2023-03-07T09:12:15.028Z,8
2023-03-07T09:17:16.631Z,9
2023-03-07T09:22:18.340Z,9
2023-03-07T09:27:19.965Z,11
2023-03-07T09:32:21.528Z,12
2023-03-07T09:37:23.223Z,10
2023-03-07T09:42:24.869Z,8
2023-03-07T09:47:26.490Z,9
2023-03-07T09:52:28.279Z,8
2023-03-07T09:57:29.905Z,8
2023-03-07T10:02:31.551Z,12
2023-03-07T10:07:33.297Z,9
2023-03-07T10:12:34.879Z,9
2023-03-07T10:17:36.570Z,9
2023-03-07T10:22:38.217Z,9
2023-03-07T10:27:39.873Z,6
2023-03-07T10:32:41.567Z,5
2023-03-07T10:37:43.220Z,8
2023-03-07T10:42:44.857Z,8
2023-03-07T10:47:46.558Z,6
2023-03-07T10:52:48.217Z,5
2023-03-07T10:57:49.843Z,4
2023-03-07T11:02:51.513Z,4
2023-03-07T11:07:53.387Z,5
2023-03-07T11:12:55.238Z,5
2023-03-07T11:17:56.977Z,5
2023-03-07T11:22:58.894Z,4
2023-03-07T11:28:00.551Z,5
2023-03-07T11:33:02.242Z,7
2023-03-07T11:38:03.930Z,5
2023-03-07T11:43:05.528Z,7
2023-03-07T11:48:07.280Z,8
2023-03-07T11:53:08.901Z,7
2023-03-07T11:58:10.555Z,5
2023-03-07T12:03:12.161Z,7
2023-03-07T12:08:13.800Z,3
2023-03-07T12:13:15.386Z,6
2023-03-07T12:18:16.994Z,7
2023-03-07T12:23:18.665Z,4
2023-03-07T12:28:20.997Z,6
2023-03-07T12:33:23.185Z,12
2023-03-07T12:38:25.880Z,4
2023-03-07T12:43:27.592Z,3
2023-03-07T12:48:29.272Z,6
2023-03-07T12:53:30.875Z,4
2023-03-07T12:58:32.532Z,6
2023-03-07T13:03:34.171Z,3
2023-03-07T13:08:35.797Z,4
2023-03-07T13:13:37.427Z,5
2023-03-07T13:18:39.149Z,5
2023-03-07T13:23:41.028Z,4
2023-03-07T13:28:42.777Z,5
2023-03-07T13:33:44.390Z,5
2023-03-07T13:38:46.053Z,3
2023-03-07T13:43:48.057Z,3
2023-03-07T13:48:49.698Z,5
2023-03-07T13:53:51.315Z,5
2023-03-07T13:58:53.109Z,6
2023-03-07T14:03:54.764Z,6
2023-03-07T14:08:56.463Z,7
2023-03-07T14:13:58.212Z,8
2023-03-07T14:18:59.805Z,8
2023-03-07T14:24:01.456Z,10
2023-03-07T14:29:03.135Z,7
2023-03-07T14:34:04.795Z,9
2023-03-07T14:39:06.396Z,8
2023-03-07T14:44:08.031Z,7
2023-03-07T14:49:09.790Z,7
2023-03-07T14:54:11.453Z,6
2023-03-07T14:59:26.113Z,7
2023-03-07T15:04:29.638Z,6
2023-03-07T15:09:31.322Z,7
2023-03-07T15:14:33.042Z,7
2023-03-07T15:19:34.647Z,6
2023-03-07T15:24:36.249Z,6
2023-03-07T15:29:37.895Z,10
2023-03-07T15:34:39.514Z,6
2023-03-07T15:39:41.211Z,5
2023-03-07T15:44:42.849Z,6
2023-03-07T15:49:44.620Z,6
2023-03-07T15:54:46.332Z,5
2023-03-07T15:59:47.982Z,7
2023-03-07T16:04:49.626Z,6
2023-03-07T16:09:51.272Z,6
2023-03-07T16:14:52.968Z,14
2023-03-07T16:19:54.619Z,12
2023-03-07T16:24:56.242Z,12
2023-03-07T16:29:57.889Z,9
2023-03-07T16:34:59.495Z,10
2023-03-07T16:40:01.404Z,9
2023-03-07T16:45:03.113Z,7
2023-03-07T16:50:04.724Z,10
2023-03-07T16:55:06.330Z,7
2023-03-07T17:00:08.015Z,7
2023-03-07T17:05:09.641Z,7
2023-03-07T17:10:11.233Z,6
2023-03-07T17:15:12.893Z,10
2023-03-07T17:20:14.546Z,9
2023-03-07T17:25:16.162Z,9
2023-03-07T17:30:17.804Z,9
2023-03-07T17:35:19.513Z,7
2023-03-07T17:40:21.420Z,5
2023-03-07T17:45:23.128Z,7
2023-03-07T17:50:24.763Z,9
2023-03-07T17:55:26.401Z,5
2023-03-07T18:00:28.132Z,5
2023-03-07T18:05:29.824Z,3
2023-03-07T18:10:31.489Z,3
2023-03-07T18:15:33.242Z,5
2023-03-07T18:20:34.825Z,6
2023-03-07T18:25:36.473Z,3
2023-03-07T18:30:38.117Z,5
2023-03-07T18:35:39.815Z,6
2023-03-07T18:40:41.655Z,6
2023-03-07T18:45:43.299Z,5
2023-03-07T18:50:44.917Z,5
2023-03-07T18:55:46.600Z,5
2023-03-07T19:00:48.312Z,3
2023-03-07T19:05:49.912Z,6
2023-03-07T19:10:51.527Z,3
2023-03-07T19:15:53.198Z,5
2023-03-07T19:20:54.830Z,7
2023-03-07T19:25:56.448Z,5
2023-03-07T19:30:58.102Z,7
2023-03-07T19:35:59.799Z,6
2023-03-07T19:41:01.495Z,6
2023-03-07T19:46:03.351Z,7
2023-03-07T19:51:05.082Z,3
2023-03-07T19:56:06.771Z,5
2023-03-07T20:01:08.607Z,5
2023-03-07T20:06:10.373Z,9
2023-03-07T20:11:12.038Z,5
2023-03-07T20:16:13.981Z,6
2023-03-07T20:21:15.662Z,14
2023-03-07T20:26:17.325Z,12
2023-03-07T20:31:19.063Z,10
2023-03-07T20:36:20.734Z,13
2023-03-07T20:41:22.402Z,11
2023-03-07T20:46:24.043Z,0
2023-03-07T20:51:25.789Z,11
2023-03-07T20:56:27.520Z,10
2023-03-07T21:01:29.194Z,12
2023-03-07T21:06:30.901Z,10
2023-03-07T21:11:32.657Z,10
2023-03-07T21:16:34.356Z,9
2023-03-07T21:21:35.994Z,6
2023-03-07T21:26:37.597Z,7
2023-03-07T21:31:39.343Z,7
2023-03-07T21:36:41.032Z,6
2023-03-07T21:41:42.710Z,6
2023-03-07T21:46:44.367Z,6
2023-03-07T21:51:46.199Z,7
2023-03-07T21:56:47.863Z,7
2023-03-07T22:01:49.795Z,7
2023-03-07T22:06:51.430Z,6
2023-03-07T22:11:53.144Z,7
2023-03-07T22:16:54.863Z,3
2023-03-07T22:21:56.537Z,5
2023-03-07T22:26:58.385Z,5
2023-03-07T22:32:00.424Z,5
2023-03-07T22:37:02.278Z,3
2023-03-07T22:42:04.809Z,3
2023-03-07T22:47:06.641Z,3
2023-03-07T22:52:08.318Z,2
2023-03-07T22:57:09.932Z,3
2023-03-07T23:02:11.537Z,4
2023-03-07T23:07:13.156Z,5
2023-03-07T23:12:14.800Z,6
2023-03-07T23:17:16.484Z,6
2023-03-07T23:22:18.112Z,6
2023-03-07T23:27:19.742Z,2
2023-03-07T23:32:21.494Z,2
2023-03-07T23:37:23.182Z,4
2023-03-07T23:42:25.016Z,4
2023-03-07T23:47:26.655Z,4
2023-03-07T23:52:28.311Z,5
2023-03-07T23:57:29.848Z,2
